createdAt,value
2023-05-24T00:00:57.110Z,95.70
2023-05-24T00:03:24.232Z,95.90
2023-05-24T00:05:52.491Z,96.00
2023-05-24T00:08:19.739Z,96.00
2023-05-24T00:10:46.769Z,96.00
2023-05-24T00:13:15.183Z,96.00
2023-05-24T00:15:42.096Z,95.70
2023-05-24T00:18:09.052Z,95.80
2023-05-24T00:20:36.706Z,95.70
2023-05-24T00:23:03.720Z,95.70
2023-05-24T00:25:31.040Z,95.70
2023-05-24T00:27:57.941Z,95.70
2023-05-24T00:30:24.924Z,95.60
2023-05-24T00:32:52.191Z,95.60
2023-05-24T00:35:19.275Z,95.80
2023-05-24T00:37:46.418Z,95.70
2023-05-24T00:40:13.849Z,95.20
2023-05-24T00:42:41.358Z,95.20
2023-05-24T00:45:09.388Z,95.30
2023-05-24T00:47:36.809Z,95.50
2023-05-24T00:50:04.638Z,96.10
2023-05-24T00:52:32.485Z,96.40
2023-05-24T00:54:59.569Z,96.40
2023-05-24T00:57:27.293Z,97.00
2023-05-24T00:59:56.608Z,97.50
2023-05-24T01:02:25.312Z,97.90
2023-05-24T01:04:52.448Z,97.90
2023-05-24T01:07:55.558Z,97.90
2023-05-24T01:10:47.488Z,97.90
2023-05-24T01:13:48.410Z,97.80
2023-05-24T01:16:36.969Z,97.60
2023-05-24T01:19:43.122Z,97.30
2023-05-24T01:22:46.566Z,97.10
2023-05-24T01:25:46.857Z,96.90
2023-05-24T01:28:17.367Z,96.90
2023-05-24T01:30:45.638Z,96.80
2023-05-24T01:33:13.019Z,96.70
2023-05-24T01:35:42.133Z,96.60
2023-05-24T01:38:14.266Z,96.50
2023-05-24T01:40:42.105Z,96.30
2023-05-24T01:43:37.759Z,95.70
2023-05-24T01:46:25.290Z,95.40
2023-05-24T01:49:27.276Z,94.90
2023-05-24T01:52:19.497Z,95.10
2023-05-24T01:54:52.992Z,95.00
2023-05-24T01:57:23.470Z,95.00
2023-05-24T01:59:53.689Z,95.10
2023-05-24T02:02:21.110Z,95.40
2023-05-24T02:04:48.225Z,95.00
2023-05-24T02:07:15.425Z,94.90
2023-05-24T02:09:42.525Z,95.10
2023-05-24T02:12:10.779Z,95.00
2023-05-24T02:14:37.949Z,94.80
2023-05-24T02:17:05.965Z,94.70
2023-05-24T02:19:34.581Z,94.50
2023-05-24T02:22:01.675Z,94.30
2023-05-24T02:24:28.675Z,94.30
2023-05-24T02:26:56.004Z,94.20
2023-05-24T02:29:23.218Z,94.20
2023-05-24T02:31:54.902Z,94.00
2023-05-24T02:34:23.410Z,94.10
2023-05-24T02:36:51.905Z,94.10
2023-05-24T02:39:18.811Z,94.00
2023-05-24T02:41:45.825Z,94.20
2023-05-24T02:44:12.926Z,94.30
2023-05-24T02:46:40.027Z,94.40
2023-05-24T02:49:07.104Z,94.40
2023-05-24T02:51:34.036Z,94.60
2023-05-24T02:54:01.119Z,94.90
2023-05-24T02:56:29.040Z,94.80
2023-05-24T02:58:56.483Z,94.80
2023-05-24T03:01:23.506Z,94.90
2023-05-24T03:03:50.871Z,95.00
2023-05-24T03:06:17.823Z,95.10
2023-05-24T03:08:44.805Z,95.10
2023-05-24T03:11:11.846Z,95.30
2023-05-24T03:13:38.771Z,95.50
2023-05-24T03:16:06.411Z,95.50
2023-05-24T03:18:33.401Z,95.50
2023-05-24T03:21:00.312Z,95.60
2023-05-24T03:23:27.551Z,95.50
2023-05-24T03:25:54.617Z,95.50
2023-05-24T03:28:22.225Z,95.50
2023-05-24T03:30:49.326Z,95.50
2023-05-24T03:33:16.513Z,95.40
2023-05-24T03:35:43.473Z,95.40
2023-05-24T03:38:10.794Z,95.60
2023-05-24T03:40:38.400Z,95.20
2023-05-24T03:43:05.456Z,95.10
2023-05-24T03:45:39.155Z,95.00
2023-05-24T03:48:07.304Z,94.90
2023-05-24T03:50:34.775Z,94.80
2023-05-24T03:53:01.780Z,94.70
2023-05-24T03:55:28.792Z,94.60
2023-05-24T03:57:55.748Z,94.80
2023-05-24T04:00:22.846Z,94.50
2023-05-24T04:02:50.071Z,94.50
2023-05-24T04:05:17.284Z,94.40
2023-05-24T04:07:46.196Z,94.20
2023-05-24T04:10:13.418Z,94.00
2023-05-24T04:12:42.031Z,94.00
2023-05-24T04:15:09.914Z,94.00
2023-05-24T04:17:37.157Z,93.90
2023-05-24T04:20:05.886Z,93.80
2023-05-24T04:22:32.951Z,93.70
2023-05-24T04:25:00.042Z,93.80
2023-05-24T04:27:27.345Z,93.50
2023-05-24T04:29:54.324Z,93.50
2023-05-24T04:32:21.341Z,93.60
2023-05-24T04:34:48.251Z,93.20
2023-05-24T04:37:17.079Z,93.00
2023-05-24T04:39:45.462Z,92.70
2023-05-24T04:42:13.258Z,92.40
2023-05-24T04:44:43.455Z,92.30
2023-05-24T04:47:10.659Z,92.30
2023-05-24T04:49:37.720Z,92.30
2023-05-24T04:52:06.186Z,92.20
2023-05-24T04:54:34.167Z,92.10
2023-05-24T04:57:01.181Z,91.70
2023-05-24T04:59:28.136Z,91.30
2023-05-24T05:01:55.078Z,91.00
2023-05-24T05:04:22.002Z,90.90
2023-05-24T05:06:49.061Z,90.30
2023-05-24T05:09:16.147Z,90.10
2023-05-24T05:11:43.335Z,88.80
2023-05-24T05:14:10.636Z,90.00
2023-05-24T05:16:38.924Z,89.80
2023-05-24T05:19:06.067Z,89.70
2023-05-24T05:21:34.848Z,90.10
2023-05-24T05:24:03.970Z,90.10
2023-05-24T05:26:31.381Z,90.40
2023-05-24T05:28:58.659Z,90.30
2023-05-24T05:31:25.746Z,90.20
2023-05-24T05:33:52.955Z,90.30
2023-05-24T05:36:19.906Z,90.10
2023-05-24T05:38:46.935Z,90.00
2023-05-24T05:41:13.973Z,88.70
2023-05-24T05:43:40.934Z,88.30
2023-05-24T05:46:07.937Z,88.40
2023-05-24T05:48:34.927Z,87.80
2023-05-24T05:51:01.906Z,87.30
2023-05-24T05:53:28.995Z,87.90
2023-05-24T05:55:56.556Z,87.30
2023-05-24T05:58:23.494Z,87.20
2023-05-24T06:00:51.822Z,86.60
2023-05-24T06:03:19.024Z,86.40
2023-05-24T06:05:46.142Z,86.90
2023-05-24T06:08:13.152Z,87.00
2023-05-24T06:10:40.319Z,86.60
2023-05-24T06:13:07.628Z,86.20
2023-05-24T06:15:34.598Z,85.80
2023-05-24T06:18:05.067Z,85.00
2023-05-24T06:20:32.087Z,85.20
2023-05-24T06:22:59.962Z,85.10
2023-05-24T06:25:29.329Z,85.00
2023-05-24T06:27:56.899Z,84.90
2023-05-24T06:30:24.042Z,84.40
2023-05-24T06:32:51.097Z,83.50
2023-05-24T06:35:18.161Z,83.50
2023-05-24T06:37:45.204Z,84.00
2023-05-24T06:40:13.093Z,83.40
2023-05-24T06:42:40.372Z,83.50
2023-05-24T06:45:09.230Z,83.10
2023-05-24T06:47:36.737Z,82.10
2023-05-24T06:50:05.181Z,82.40
2023-05-24T06:52:32.178Z,82.60
2023-05-24T06:54:59.105Z,82.60
2023-05-24T06:57:26.985Z,82.80
2023-05-24T06:59:53.918Z,82.40
2023-05-24T07:02:26.418Z,82.70
2023-05-24T07:04:54.087Z,81.90
2023-05-24T07:07:21.617Z,81.40
2023-05-24T07:09:48.586Z,80.70
2023-05-24T07:12:15.789Z,80.90
2023-05-24T07:14:42.782Z,81.20
2023-05-24T07:17:09.965Z,80.60
2023-05-24T07:19:37.117Z,79.90
2023-05-24T07:22:08.421Z,79.80
2023-05-24T07:24:36.432Z,79.50
2023-05-24T07:27:05.142Z,78.80
2023-05-24T07:29:32.118Z,77.80
2023-05-24T07:31:59.117Z,78.10
2023-05-24T07:34:27.931Z,77.40
2023-05-24T07:36:54.902Z,77.60
2023-05-24T07:39:22.020Z,77.90
2023-05-24T07:41:49.004Z,77.50
2023-05-24T07:44:15.989Z,77.30
2023-05-24T07:46:43.033Z,77.00
2023-05-24T07:49:10.056Z,77.00
2023-05-24T07:51:38.857Z,76.70
2023-05-24T07:54:06.214Z,76.50
2023-05-24T07:56:33.544Z,76.40
2023-05-24T07:59:04.716Z,74.90
2023-05-24T08:03:39.440Z,73.90
2023-05-24T08:06:06.523Z,73.70
2023-05-24T08:08:33.768Z,74.30
2023-05-24T08:11:00.823Z,74.20
2023-05-24T08:13:27.860Z,74.10
2023-05-24T08:15:54.897Z,73.70
2023-05-24T08:18:21.850Z,73.80
2023-05-24T08:20:48.837Z,72.50
2023-05-24T08:23:15.873Z,72.40
2023-05-24T08:25:43.074Z,73.80
2023-05-24T08:28:10.989Z,74.40
2023-05-24T08:30:38.458Z,75.10
2023-05-24T08:33:05.508Z,74.70
2023-05-24T08:35:32.466Z,75.10
2023-05-24T08:37:59.360Z,75.20
2023-05-24T08:40:26.524Z,75.60
2023-05-24T08:42:55.132Z,75.60
2023-05-24T08:45:22.776Z,75.30
2023-05-24T08:47:51.891Z,75.80
2023-05-24T08:50:20.302Z,75.50
2023-05-24T08:52:48.902Z,75.00
2023-05-24T08:55:16.979Z,73.30
2023-05-24T08:57:45.969Z,74.10
2023-05-24T09:00:14.122Z,74.30
2023-05-24T09:02:45.134Z,75.20
2023-05-24T09:05:16.871Z,74.80
2023-05-24T09:07:46.385Z,75.00
2023-05-24T09:10:15.159Z,75.00
2023-05-24T09:12:52.993Z,74.50
2023-05-24T09:15:19.891Z,74.40
2023-05-24T09:17:47.487Z,74.50
2023-05-24T09:20:14.730Z,72.90
2023-05-24T09:22:43.818Z,73.20
2023-05-24T09:25:14.759Z,73.80
2023-05-24T09:27:42.945Z,73.60
2023-05-24T09:30:12.332Z,72.30
2023-05-24T09:32:39.694Z,72.30
2023-05-24T09:35:12.508Z,72.00
2023-05-24T09:37:40.424Z,71.10
2023-05-24T09:40:22.552Z,71.40
2023-05-24T09:43:02.576Z,70.80
2023-05-24T09:45:29.621Z,70.50
2023-05-24T09:47:56.664Z,68.70
2023-05-24T09:50:23.645Z,68.70
2023-05-24T09:52:51.816Z,68.20
2023-05-24T09:55:20.478Z,67.60
2023-05-24T09:58:12.845Z,67.00
2023-05-24T10:00:42.267Z,66.80
2023-05-24T10:03:12.957Z,64.70
2023-05-24T10:05:45.552Z,64.20
2023-05-24T10:08:14.246Z,64.20
2023-05-24T10:10:42.725Z,64.10
2023-05-24T10:13:11.505Z,64.60
2023-05-24T10:15:38.892Z,66.30
2023-05-24T10:18:10.457Z,66.30
2023-05-24T10:20:41.456Z,66.70
2023-05-24T10:23:15.086Z,68.20
2023-05-24T10:25:55.655Z,67.70
2023-05-24T10:28:26.190Z,66.00
2023-05-24T10:31:12.419Z,64.90
2023-05-24T10:33:44.913Z,66.20
2023-05-24T10:36:16.002Z,66.80
2023-05-24T10:38:46.534Z,66.70
2023-05-24T10:41:13.914Z,67.00
2023-05-24T10:43:53.739Z,67.00
2023-05-24T10:46:28.255Z,66.50
2023-05-24T10:49:02.781Z,66.50
2023-05-24T10:51:39.333Z,66.60
2023-05-24T10:54:27.037Z,67.10
2023-05-24T10:56:54.552Z,68.00
2023-05-24T10:59:35.166Z,70.30
2023-05-24T11:02:04.123Z,72.70
2023-05-24T11:04:36.491Z,73.60
2023-05-24T11:07:09.442Z,76.20
2023-05-24T11:09:46.817Z,78.70
2023-05-24T11:12:20.909Z,80.30
2023-05-24T11:14:54.270Z,79.80
2023-05-24T11:17:23.795Z,80.60
2023-05-24T11:19:55.597Z,80.30
2023-05-24T11:22:26.922Z,78.90
2023-05-24T11:24:54.061Z,77.80
2023-05-24T11:27:21.505Z,77.00
2023-05-24T11:29:48.919Z,76.00
2023-05-24T11:32:21.096Z,75.00
2023-05-24T11:34:49.453Z,74.10
2023-05-24T11:37:18.281Z,72.80
2023-05-24T11:39:54.169Z,71.60
2023-05-24T11:42:24.917Z,71.90
2023-05-24T11:44:54.000Z,71.80
2023-05-24T11:47:22.441Z,72.00
2023-05-24T11:49:52.673Z,71.90
2023-05-24T11:52:20.505Z,70.00
2023-05-24T11:54:50.511Z,69.00
2023-05-24T11:57:30.668Z,67.40
2023-05-24T11:59:58.460Z,67.20
2023-05-24T12:02:25.437Z,66.80
2023-05-24T12:04:52.486Z,66.80
2023-05-24T12:07:19.537Z,66.70
2023-05-24T12:09:46.606Z,65.90
2023-05-24T12:12:13.614Z,66.20
2023-05-24T12:14:40.722Z,65.60
2023-05-24T12:17:17.849Z,66.10
2023-05-24T12:19:44.987Z,67.20
2023-05-24T12:22:12.014Z,67.10
2023-05-24T12:24:39.010Z,66.50
2023-05-24T12:27:10.128Z,66.70
2023-05-24T12:29:41.696Z,67.20
2023-05-24T12:32:15.541Z,66.90
2023-05-24T12:34:45.096Z,67.30
2023-05-24T12:37:14.454Z,67.40
2023-05-24T12:39:43.108Z,66.90
2023-05-24T12:42:13.239Z,66.50
2023-05-24T12:44:40.911Z,66.20
2023-05-24T12:47:09.094Z,65.30
2023-05-24T12:49:36.560Z,65.10
2023-05-24T12:52:04.267Z,65.90
2023-05-24T12:54:31.670Z,65.80
2023-05-24T12:57:02.619Z,65.70
2023-05-24T12:59:30.272Z,65.60
2023-05-24T13:01:58.284Z,65.30
2023-05-24T13:04:26.915Z,65.20
2023-05-24T13:06:54.002Z,65.80
2023-05-24T13:09:22.931Z,64.30
2023-05-24T13:11:50.042Z,64.40
2023-05-24T13:14:18.207Z,62.30
2023-05-24T13:16:45.846Z,61.90
2023-05-24T13:19:13.226Z,61.00
2023-05-24T13:21:40.745Z,60.90
2023-05-24T13:24:08.589Z,60.50
2023-05-24T13:26:38.722Z,62.10
2023-05-24T13:31:40.703Z,60.50
2023-05-24T13:34:11.640Z,62.40
2023-05-24T13:36:39.176Z,62.20
2023-05-24T13:41:41.028Z,60.80
2023-05-24T13:44:08.667Z,60.20
2023-05-24T13:46:36.252Z,61.20
2023-05-24T13:49:03.598Z,58.50
2023-05-24T13:51:30.756Z,57.70
2023-05-24T13:53:57.814Z,58.10
2023-05-24T13:56:25.869Z,57.80
2023-05-24T13:58:53.647Z,56.80
2023-05-24T14:01:20.687Z,56.50
2023-05-24T14:03:47.897Z,56.30
2023-05-24T14:06:15.054Z,57.40
2023-05-24T14:08:42.446Z,56.20
2023-05-24T14:11:09.781Z,56.90
2023-05-24T14:16:08.775Z,56.50
2023-05-24T14:18:36.455Z,54.90
2023-05-24T14:21:03.684Z,53.90
2023-05-24T14:23:31.801Z,53.60
2023-05-24T14:25:59.600Z,53.20
2023-05-24T14:28:26.901Z,52.70
2023-05-24T14:30:54.009Z,54.20
2023-05-24T14:33:20.955Z,52.70
2023-05-24T14:35:48.071Z,52.50
2023-05-24T14:38:15.300Z,51.40
2023-05-24T14:40:42.437Z,52.30
2023-05-24T14:43:10.659Z,52.70
2023-05-24T14:45:39.575Z,53.20
2023-05-24T14:48:10.511Z,51.60
2023-05-24T14:50:39.887Z,51.60
2023-05-24T14:53:11.707Z,51.40
2023-05-24T14:55:41.661Z,51.90
2023-05-24T14:58:09.496Z,52.80
2023-05-24T15:00:38.374Z,52.30
2023-05-24T15:03:06.192Z,52.10
2023-05-24T15:05:34.596Z,51.00
2023-05-24T15:08:01.620Z,51.00
2023-05-24T15:10:28.574Z,52.30
2023-05-24T15:12:55.503Z,51.00
2023-05-24T15:15:23.355Z,49.60
2023-05-24T15:17:50.323Z,50.60
2023-05-24T15:20:17.486Z,49.80
2023-05-24T15:22:44.466Z,48.30
2023-05-24T15:25:11.530Z,47.30
2023-05-24T15:27:39.893Z,47.00
2023-05-24T15:30:08.004Z,47.10
2023-05-24T15:32:34.978Z,45.90
2023-05-24T15:35:02.440Z,45.80
2023-05-24T15:37:29.405Z,44.50
2023-05-24T15:39:56.386Z,43.30
2023-05-24T15:42:24.952Z,43.00
2023-05-24T15:44:52.013Z,42.20
2023-05-24T15:47:21.987Z,42.60
2023-05-24T15:49:49.727Z,42.80
2023-05-24T15:52:16.999Z,43.20
2023-05-24T15:54:44.152Z,44.30
2023-05-24T15:57:11.155Z,43.70
2023-05-24T15:59:38.696Z,44.00
2023-05-24T16:02:09.431Z,42.70
2023-05-24T16:04:36.533Z,42.90
2023-05-24T16:07:03.589Z,42.80
2023-05-24T16:09:31.025Z,43.50
2023-05-24T16:11:57.944Z,42.80
2023-05-24T16:14:25.953Z,43.80
2023-05-24T16:16:53.178Z,43.90
2023-05-24T16:19:20.115Z,42.30
2023-05-24T16:21:47.169Z,42.80
2023-05-24T16:24:14.278Z,42.90
2023-05-24T16:26:41.481Z,42.60
2023-05-24T16:29:10.382Z,45.10
2023-05-24T16:31:37.548Z,44.80
2023-05-24T16:34:04.501Z,45.40
2023-05-24T16:36:31.899Z,46.20
2023-05-24T16:38:59.236Z,47.60
2023-05-24T16:41:27.221Z,47.30
2023-05-24T16:43:54.173Z,47.60
2023-05-24T16:46:21.448Z,48.00
2023-05-24T16:48:48.421Z,47.00
2023-05-24T16:51:16.416Z,45.10
2023-05-24T16:53:43.325Z,45.50
2023-05-24T16:56:10.222Z,45.40
2023-05-24T16:58:37.379Z,47.10
2023-05-24T17:01:04.377Z,47.40
2023-05-24T17:03:32.655Z,46.90
2023-05-24T17:06:05.257Z,46.30
2023-05-24T17:08:35.898Z,45.60
2023-05-24T17:11:04.724Z,46.00
2023-05-24T17:13:32.153Z,46.40
2023-05-24T17:16:00.046Z,46.80
2023-05-24T17:18:29.961Z,46.10
2023-05-24T17:20:58.983Z,47.90
2023-05-24T17:23:29.372Z,48.40
2023-05-24T17:25:56.921Z,48.70
2023-05-24T17:28:28.760Z,48.50
2023-05-24T17:31:01.326Z,48.50
2023-05-24T17:33:30.787Z,49.00
2023-05-24T17:36:02.541Z,49.50
2023-05-24T17:38:32.825Z,49.90
2023-05-24T17:40:59.987Z,49.20
2023-05-24T17:43:32.721Z,50.40
2023-05-24T17:46:03.781Z,51.20
2023-05-24T17:48:33.183Z,52.00
2023-05-24T17:51:01.935Z,51.90
2023-05-24T17:53:32.190Z,51.40
2023-05-24T17:56:00.103Z,52.30
2023-05-24T17:58:28.423Z,52.90
2023-05-24T18:00:55.522Z,52.60
2023-05-24T18:03:23.987Z,52.30
2023-05-24T18:05:51.000Z,52.20
2023-05-24T18:08:18.130Z,52.20
2023-05-24T18:10:45.704Z,52.60
2023-05-24T18:13:13.076Z,52.90
2023-05-24T18:15:40.359Z,54.10
2023-05-24T18:18:07.424Z,54.70
2023-05-24T18:20:34.475Z,55.10
2023-05-24T18:23:01.611Z,56.00
2023-05-24T18:25:28.654Z,56.80
2023-05-24T18:27:56.122Z,57.40
2023-05-24T18:30:23.116Z,57.80
2023-05-24T18:33:04.323Z,58.50
2023-05-24T18:35:32.876Z,59.10
2023-05-24T18:38:00.072Z,59.40
2023-05-24T18:40:27.221Z,59.70
2023-05-24T18:42:54.141Z,60.20
2023-05-24T18:45:21.121Z,60.50
2023-05-24T18:47:48.156Z,61.30
2023-05-24T18:50:15.243Z,61.80
2023-05-24T18:52:42.143Z,62.40
2023-05-24T18:55:12.152Z,62.70
2023-05-24T18:57:39.334Z,63.10
2023-05-24T19:00:07.693Z,64.10
2023-05-24T19:02:39.055Z,64.30
2023-05-24T19:05:08.190Z,64.70
2023-05-24T19:07:36.567Z,65.50
2023-05-24T19:10:04.510Z,66.30
2023-05-24T19:12:31.800Z,67.10
2023-05-24T19:15:02.359Z,67.00
2023-05-24T19:17:29.348Z,67.10
2023-05-24T19:19:56.295Z,67.30
2023-05-24T19:22:23.375Z,67.40
2023-05-24T19:24:50.410Z,68.80
2023-05-24T19:27:17.330Z,68.80
2023-05-24T19:29:44.228Z,71.50
2023-05-24T19:32:11.465Z,73.70
2023-05-24T19:34:41.965Z,74.60
2023-05-24T19:37:09.744Z,75.40
2023-05-24T19:39:37.576Z,75.70
2023-05-24T19:42:05.135Z,76.50
2023-05-24T19:44:32.119Z,76.70
2023-05-24T19:46:59.031Z,77.20
2023-05-24T19:49:26.080Z,77.40
2023-05-24T19:51:53.185Z,77.90
2023-05-24T19:54:20.986Z,78.30
2023-05-24T19:56:51.817Z,78.70
2023-05-24T19:59:19.504Z,78.90
2023-05-24T20:01:46.492Z,79.10
2023-05-24T20:04:13.609Z,78.80
2023-05-24T20:06:40.968Z,78.20
2023-05-24T20:09:08.443Z,77.40
2023-05-24T20:11:35.415Z,77.10
2023-05-24T20:14:03.008Z,77.40
2023-05-24T20:16:31.153Z,76.70
2023-05-24T20:18:58.115Z,76.70
2023-05-24T20:21:25.049Z,76.60
2023-05-24T20:23:57.744Z,76.30
2023-05-24T20:26:25.573Z,75.50
2023-05-24T20:28:52.526Z,74.70
2023-05-24T20:31:19.543Z,74.10
2023-05-24T20:33:46.506Z,74.00
2023-05-24T20:36:14.906Z,73.10
2023-05-24T20:38:42.177Z,72.80
2023-05-24T20:41:09.158Z,72.50
2023-05-24T20:43:36.152Z,72.50
2023-05-24T20:46:03.520Z,72.10
2023-05-24T20:48:30.500Z,71.90
2023-05-24T20:50:58.133Z,71.80
2023-05-24T20:53:25.068Z,71.70
2023-05-24T20:55:52.069Z,71.60
2023-05-24T20:58:19.016Z,71.80
2023-05-24T21:00:46.171Z,71.50
2023-05-24T21:03:13.345Z,71.30
2023-05-24T21:05:40.485Z,71.20
2023-05-24T21:08:07.569Z,71.00
2023-05-24T21:10:35.406Z,70.90
2023-05-24T21:13:02.309Z,71.00
2023-05-24T21:15:29.322Z,71.00
2023-05-24T21:17:56.238Z,70.60
2023-05-24T21:20:23.681Z,70.60
2023-05-24T21:22:50.753Z,70.50
2023-05-24T21:25:17.733Z,70.60
2023-05-24T21:27:44.677Z,70.60
2023-05-24T21:30:12.733Z,70.90
2023-05-24T21:32:39.843Z,71.50
2023-05-24T21:35:07.632Z,71.70
2023-05-24T21:37:34.574Z,72.00
2023-05-24T21:40:01.542Z,72.40
2023-05-24T21:42:28.478Z,72.50
2023-05-24T21:44:55.451Z,72.30
2023-05-24T21:47:22.465Z,72.20
2023-05-24T21:49:50.850Z,72.10
2023-05-24T21:52:19.576Z,72.40
2023-05-24T21:54:46.492Z,72.60
2023-05-24T21:57:13.411Z,72.60
2023-05-24T21:59:40.391Z,72.70
2023-05-24T22:02:07.346Z,72.60
2023-05-24T22:04:34.453Z,72.60
2023-05-24T22:07:01.419Z,72.90
2023-05-24T22:09:28.341Z,72.70
2023-05-24T22:11:55.445Z,73.50
2023-05-24T22:14:22.367Z,73.20
2023-05-24T22:16:49.536Z,73.30
2023-05-24T22:19:20.327Z,73.30
2023-05-24T22:21:52.769Z,73.50
2023-05-24T22:24:19.769Z,73.60
2023-05-24T22:26:47.039Z,73.80
2023-05-24T22:29:14.753Z,73.90
2023-05-24T22:31:41.898Z,74.10
2023-05-24T22:34:11.899Z,74.20
2023-05-24T22:36:39.125Z,74.20
2023-05-24T22:39:07.100Z,74.40
2023-05-24T22:41:34.164Z,74.40
2023-05-24T22:44:01.223Z,74.20
2023-05-24T22:46:28.206Z,74.60
2023-05-24T22:48:57.886Z,74.70
2023-05-24T22:51:26.073Z,74.60
2023-05-24T22:53:53.041Z,74.60
2023-05-24T22:56:20.576Z,74.80
2023-05-24T22:58:47.577Z,75.00
2023-05-24T23:01:16.739Z,75.20
2023-05-24T23:03:43.712Z,75.10
2023-05-24T23:06:12.213Z,75.60
2023-05-24T23:08:39.542Z,75.70
2023-05-24T23:11:10.307Z,75.90
2023-05-24T23:13:38.112Z,75.90
2023-05-24T23:16:05.675Z,76.20
2023-05-24T23:18:32.841Z,76.10
2023-05-24T23:21:02.955Z,76.50
2023-05-24T23:23:29.999Z,76.50
2023-05-24T23:25:56.977Z,76.70
2023-05-24T23:28:23.893Z,76.80
2023-05-24T23:30:50.878Z,76.90
2023-05-24T23:33:17.875Z,77.00
2023-05-24T23:35:45.128Z,77.00
2023-05-24T23:38:14.892Z,77.10
2023-05-24T23:40:42.351Z,77.90
2023-05-24T23:43:09.499Z,77.40
2023-05-24T23:45:36.528Z,77.50
2023-05-24T23:48:03.767Z,77.80
2023-05-24T23:50:37.326Z,77.90
2023-05-24T23:53:09.940Z,77.80
2023-05-24T23:55:37.192Z,77.70
2023-05-24T23:58:04.108Z,77.60
